KCLE/CLE METAR and TAF weather

Enter ICAO airport designator
Station Type Date Time Source
KCLE METAR 2020/07/10 15:51 UTC NOAA

KCLE 101551Z 21008KT 10SM SCT044 SCT050 33/21 A2983 RMK AO2 LTG DSNT NE SLP094 T03330211 $


Station Type Date Time Source
KCLE Decoded METAR 2020/07/10 15:51 UTC NOAA

CLEVELAND-HOPKINS INTERNATIONAL , OH, United States (KCLE) 41-24N 081-51W 236M
Jul 10, 2020 - 11:51 AM EDT / 2020.07.10 1551 UTC
Wind: from the SSW (210 degrees) at 9 MPH (8 KT):0
Visibility: 10 mile(s):0
Sky conditions: partly cloudy
Weather: Lightning observed
Temperature: 91.9 F (33.3 C)
Heat index: 97.3 F (36.3 C):1
Dew Point: 70.0 F (21.1 C)
Relative Humidity: 48%
Pressure (altimeter): 29.83 in. Hg (1010 hPa)
ob: KCLE 101551Z 21008KT 10SM SCT044 SCT050 33/21 A2983 RMK AO2 LTG DSNT NE SLP094 T03330211
cycle: 16

Station Type Date Time Source
KCLE TAF 2020/07/10 14:12 UTC NOAA

TAF
AMD KCLE 101411Z 1014/1118 21010KT P6SM SCT250
FM101800 22006KT P6SM VCTS SCT050CB
TEMPO 1020/1024 1SM -TSRA BKN025CB
FM110000 27008KT P6SM VCSH BKN035
FM110600 28008KT P6SM VCSH BKN025

Example: see airport list